sensor_id;sensor_type;location;lat;lon;timestamp;P1;durP1;ratioP1;P2;durP2;ratioP2
9799;SDS011;4939;52.00085300;4.17406100;2024-02-15T00:01:40;10.70;;;2.97;;
9799;SDS011;4939;52.00085300;4.17406100;2024-02-15T00:04:06;8.57;;;2.60;;
9799;SDS011;4939;52.00085300;4.17406100;2024-02-15T00:06:32;9.77;;;2.30;;
9799;SDS011;4939;52.00085300;4.17406100;2024-02-15T00:08:58;9.85;;;2.45;;
9799;SDS011;4939;52.00085300;4.17406100;2024-02-15T00:11:24;6.57;;;2.33;;
9799;SDS011;4939;52.00085300;4.17406100;2024-02-15T00:13:50;15.85;;;2.50;;
9799;SDS011;4939;52.00085300;4.17406100;2024-02-15T00:16:17;10.02;;;2.95;;
9799;SDS011;4939;52.00085300;4.17406100;2024-02-15T00:18:43;10.57;;;3.35;;
9799;SDS011;4939;52.00085300;4.17406100;2024-02-15T00:21:09;11.57;;;3.30;;
9799;SDS011;4939;52.00085300;4.17406100;2024-02-15T00:23:36;12.15;;;3.03;;
9799;SDS011;4939;52.00085300;4.17406100;2024-02-15T00:26:02;13.23;;;3.30;;
9799;SDS011;4939;52.00085300;4.17406100;2024-02-15T00:28:28;13.60;;;3.22;;
9799;SDS011;4939;52.00085300;4.17406100;2024-02-15T00:30:54;10.10;;;3.55;;
9799;SDS011;4939;52.00085300;4.17406100;2024-02-15T00:33:20;14.40;;;3.40;;
9799;SDS011;4939;52.00085300;4.17406100;2024-02-15T00:35:47;13.60;;;3.67;;
9799;SDS011;4939;52.00085300;4.17406100;2024-02-15T00:38:17;9.10;;;3.53;;
9799;SDS011;4939;52.00085300;4.17406100;2024-02-15T00:40:44;7.60;;;3.25;;
9799;SDS011;4939;52.00085300;4.17406100;2024-02-15T00:43:10;12.43;;;4.25;;
9799;SDS011;4939;52.00085300;4.17406100;2024-02-15T00:45:36;19.02;;;4.18;;
9799;SDS011;4939;52.00085300;4.17406100;2024-02-15T00:48:03;13.98;;;4.03;;
9799;SDS011;4939;52.00085300;4.17406100;2024-02-15T00:50:31;14.23;;;4.60;;
9799;SDS011;4939;52.00085300;4.17406100;2024-02-15T00:52:57;9.80;;;3.90;;
9799;SDS011;4939;52.00085300;4.17406100;2024-02-15T00:55:23;12.75;;;4.25;;
9799;SDS011;4939;52.00085300;4.17406100;2024-02-15T00:57:49;14.85;;;4.68;;
9799;SDS011;4939;52.00085300;4.17406100;2024-02-15T01:00:15;13.10;;;4.90;;
9799;SDS011;4939;52.00085300;4.17406100;2024-02-15T01:02:41;13.82;;;4.75;;
9799;SDS011;4939;52.00085300;4.17406100;2024-02-15T01:05:07;16.55;;;5.18;;
9799;SDS011;4939;52.00085300;4.17406100;2024-02-15T01:07:35;13.15;;;5.47;;
9799;SDS011;4939;52.00085300;4.17406100;2024-02-15T01:10:01;14.23;;;4.85;;
9799;SDS011;4939;52.00085300;4.17406100;2024-02-15T01:12:28;15.52;;;5.40;;
9799;SDS011;4939;52.00085300;4.17406100;2024-02-15T01:14:54;13.30;;;5.43;;
9799;SDS011;4939;52.00085300;4.17406100;2024-02-15T01:17:21;19.42;;;5.82;;
9799;SDS011;4939;52.00085300;4.17406100;2024-02-15T01:19:47;15.70;;;5.97;;
9799;SDS011;4939;52.00085300;4.17406100;2024-02-15T01:22:13;15.88;;;5.82;;
9799;SDS011;4939;52.00085300;4.17406100;2024-02-15T01:24:39;20.85;;;6.10;;
9799;SDS011;4939;52.00085300;4.17406100;2024-02-15T01:27:06;17.83;;;6.28;;
9799;SDS011;4939;52.00085300;4.17406100;2024-02-15T01:29:32;12.98;;;5.95;;
9799;SDS011;4939;52.00085300;4.17406100;2024-02-15T01:31:59;17.25;;;5.90;;
9799;SDS011;4939;52.00085300;4.17406100;2024-02-15T01:34:26;16.02;;;6.10;;
9799;SDS011;4939;52.00085300;4.17406100;2024-02-15T01:36:52;18.08;;;5.78;;
9799;SDS011;4939;52.00085300;4.17406100;2024-02-15T01:39:18;14.68;;;5.63;;
9799;SDS011;4939;52.00085300;4.17406100;2024-02-15T01:41:48;15.57;;;6.00;;
9799;SDS011;4939;52.00085300;4.17406100;2024-02-15T01:44:20;14.35;;;5.30;;
9799;SDS011;4939;52.00085300;4.17406100;2024-02-15T01:46:47;15.73;;;5.03;;
9799;SDS011;4939;52.00085300;4.17406100;2024-02-15T01:49:14;13.48;;;5.45;;
9799;SDS011;4939;52.00085300;4.17406100;2024-02-15T01:51:40;16.38;;;5.28;;
9799;SDS011;4939;52.00085300;4.17406100;2024-02-15T01:54:08;12.18;;;4.88;;
9799;SDS011;4939;52.00085300;4.17406100;2024-02-15T01:56:36;18.77;;;5.28;;
9799;SDS011;4939;52.00085300;4.17406100;2024-02-15T01:59:02;12.25;;;5.00;;
9799;SDS011;4939;52.00085300;4.17406100;2024-02-15T02:01:30;13.25;;;4.25;;
9799;SDS011;4939;52.00085300;4.17406100;2024-02-15T02:03:59;16.42;;;4.30;;
9799;SDS011;4939;52.00085300;4.17406100;2024-02-15T02:06:26;13.75;;;4.53;;
9799;SDS011;4939;52.00085300;4.17406100;2024-02-15T02:08:52;14.40;;;4.40;;
9799;SDS011;4939;52.00085300;4.17406100;2024-02-15T02:11:21;12.27;;;3.90;;
9799;SDS011;4939;52.00085300;4.17406100;2024-02-15T02:13:47;10.43;;;3.65;;
9799;SDS011;4939;52.00085300;4.17406100;2024-02-15T02:16:24;16.67;;;4.15;;
9799;SDS011;4939;52.00085300;4.17406100;2024-02-15T02:18:51;12.25;;;3.63;;
9799;SDS011;4939;52.00085300;4.17406100;2024-02-15T02:21:17;10.18;;;3.58;;
9799;SDS011;4939;52.00085300;4.17406100;2024-02-15T02:23:43;12.95;;;3.53;;
9799;SDS011;4939;52.00085300;4.17406100;2024-02-15T02:26:18;12.57;;;3.90;;
9799;SDS011;4939;52.00085300;4.17406100;2024-02-15T02:28:47;9.77;;;3.50;;
9799;SDS011;4939;52.00085300;4.17406100;2024-02-15T02:31:14;13.63;;;3.60;;
9799;SDS011;4939;52.00085300;4.17406100;2024-02-15T02:33:46;11.38;;;3.40;;
9799;SDS011;4939;52.00085300;4.17406100;2024-02-15T02:36:19;14.75;;;4.15;;
9799;SDS011;4939;52.00085300;4.17406100;2024-02-15T02:38:46;9.55;;;3.38;;
9799;SDS011;4939;52.00085300;4.17406100;2024-02-15T02:41:16;10.20;;;3.58;;
9799;SDS011;4939;52.00085300;4.17406100;2024-02-15T02:43:44;10.15;;;3.25;;
9799;SDS011;4939;52.00085300;4.17406100;2024-02-15T02:46:10;6.88;;;3.03;;
9799;SDS011;4939;52.00085300;4.17406100;2024-02-15T02:48:37;9.93;;;3.17;;
9799;SDS011;4939;52.00085300;4.17406100;2024-02-15T02:51:03;14.32;;;3.45;;
9799;SDS011;4939;52.00085300;4.17406100;2024-02-15T02:53:29;8.32;;;2.53;;
9799;SDS011;4939;52.00085300;4.17406100;2024-02-15T02:55:56;10.30;;;2.88;;
9799;SDS011;4939;52.00085300;4.17406100;2024-02-15T02:58:22;8.23;;;3.60;;
9799;SDS011;4939;52.00085300;4.17406100;2024-02-15T03:00:48;13.93;;;3.67;;
9799;SDS011;4939;52.00085300;4.17406100;2024-02-15T03:03:14;9.23;;;3.45;;
9799;SDS011;4939;52.00085300;4.17406100;2024-02-15T03:05:40;12.10;;;3.45;;
9799;SDS011;4939;52.00085300;4.17406100;2024-02-15T03:08:11;14.30;;;3.78;;
9799;SDS011;4939;52.00085300;4.17406100;2024-02-15T03:10:38;15.57;;;3.92;;
9799;SDS011;4939;52.00085300;4.17406100;2024-02-15T03:13:05;16.67;;;4.45;;
9799;SDS011;4939;52.00085300;4.17406100;2024-02-15T03:15:34;12.55;;;3.95;;
9799;SDS011;4939;52.00085300;4.17406100;2024-02-15T03:18:00;12.20;;;4.60;;
9799;SDS011;4939;52.00085300;4.17406100;2024-02-15T03:20:37;11.27;;;4.30;;
9799;SDS011;4939;52.00085300;4.17406100;2024-02-15T03:23:03;13.43;;;4.15;;
9799;SDS011;4939;52.00085300;4.17406100;2024-02-15T03:25:29;17.58;;;5.40;;
9799;SDS011;4939;52.00085300;4.17406100;2024-02-15T03:27:55;13.13;;;5.00;;
9799;SDS011;4939;52.00085300;4.17406100;2024-02-15T03:30:24;14.05;;;4.85;;
9799;SDS011;4939;52.00085300;4.17406100;2024-02-15T03:32:56;12.25;;;5.47;;
9799;SDS011;4939;52.00085300;4.17406100;2024-02-15T03:35:23;18.33;;;5.90;;
9799;SDS011;4939;52.00085300;4.17406100;2024-02-15T03:37:51;16.10;;;5.63;;
9799;SDS011;4939;52.00085300;4.17406100;2024-02-15T03:40:21;16.38;;;5.35;;
9799;SDS011;4939;52.00085300;4.17406100;2024-02-15T03:42:47;17.10;;;5.20;;
9799;SDS011;4939;52.00085300;4.17406100;2024-02-15T03:45:15;13.00;;;5.47;;
9799;SDS011;4939;52.00085300;4.17406100;2024-02-15T03:47:41;14.80;;;5.75;;
9799;SDS011;4939;52.00085300;4.17406100;2024-02-15T03:50:07;16.98;;;5.60;;
9799;SDS011;4939;52.00085300;4.17406100;2024-02-15T03:52:39;12.13;;;5.32;;
9799;SDS011;4939;52.00085300;4.17406100;2024-02-15T03:55:06;17.73;;;6.13;;
9799;SDS011;4939;52.00085300;4.17406100;2024-02-15T03:57:32;14.43;;;5.75;;
9799;SDS011;4939;52.00085300;4.17406100;2024-02-15T03:59:59;19.50;;;6.60;;
9799;SDS011;4939;52.00085300;4.17406100;2024-02-15T04:02:25;14.63;;;6.43;;
9799;SDS011;4939;52.00085300;4.17406100;2024-02-15T04:04:55;16.98;;;6.85;;
9799;SDS011;4939;52.00085300;4.17406100;2024-02-15T04:07:24;16.98;;;6.45;;
9799;SDS011;4939;52.00085300;4.17406100;2024-02-15T04:09:53;18.88;;;6.80;;
9799;SDS011;4939;52.00085300;4.17406100;2024-02-15T04:12:19;14.30;;;7.05;;
9799;SDS011;4939;52.00085300;4.17406100;2024-02-15T04:14:45;20.88;;;8.20;;
9799;SDS011;4939;52.00085300;4.17406100;2024-02-15T04:17:11;20.38;;;7.40;;
9799;SDS011;4939;52.00085300;4.17406100;2024-02-15T04:19:45;20.58;;;7.53;;
9799;SDS011;4939;52.00085300;4.17406100;2024-02-15T04:22:11;21.52;;;7.90;;
9799;SDS011;4939;52.00085300;4.17406100;2024-02-15T04:24:37;20.92;;;8.38;;
9799;SDS011;4939;52.00085300;4.17406100;2024-02-15T04:27:08;19.20;;;8.35;;
9799;SDS011;4939;52.00085300;4.17406100;2024-02-15T04:29:37;24.33;;;8.48;;
9799;SDS011;4939;52.00085300;4.17406100;2024-02-15T04:32:06;21.90;;;8.35;;
9799;SDS011;4939;52.00085300;4.17406100;2024-02-15T04:34:36;20.88;;;8.23;;
9799;SDS011;4939;52.00085300;4.17406100;2024-02-15T04:37:03;22.25;;;7.47;;
9799;SDS011;4939;52.00085300;4.17406100;2024-02-15T04:39:35;23.92;;;8.00;;
9799;SDS011;4939;52.00085300;4.17406100;2024-02-15T04:42:01;25.63;;;8.32;;
9799;SDS011;4939;52.00085300;4.17406100;2024-02-15T04:44:29;30.55;;;8.30;;
9799;SDS011;4939;52.00085300;4.17406100;2024-02-15T04:47:00;23.38;;;8.98;;
9799;SDS011;4939;52.00085300;4.17406100;2024-02-15T04:49:27;25.08;;;9.55;;
9799;SDS011;4939;52.00085300;4.17406100;2024-02-15T04:51:54;23.40;;;9.90;;
9799;SDS011;4939;52.00085300;4.17406100;2024-02-15T04:54:22;26.15;;;10.02;;
9799;SDS011;4939;52.00085300;4.17406100;2024-02-15T04:56:48;25.33;;;9.77;;
9799;SDS011;4939;52.00085300;4.17406100;2024-02-15T04:59:18;22.95;;;9.32;;
9799;SDS011;4939;52.00085300;4.17406100;2024-02-15T05:01:46;25.20;;;8.30;;
9799;SDS011;4939;52.00085300;4.17406100;2024-02-15T05:04:14;24.55;;;9.18;;
9799;SDS011;4939;52.00085300;4.17406100;2024-02-15T05:06:40;26.55;;;8.93;;
9799;SDS011;4939;52.00085300;4.17406100;2024-02-15T05:09:07;24.17;;;8.75;;
9799;SDS011;4939;52.00085300;4.17406100;2024-02-15T05:11:36;28.90;;;8.65;;
9799;SDS011;4939;52.00085300;4.17406100;2024-02-15T05:14:05;25.33;;;9.27;;
9799;SDS011;4939;52.00085300;4.17406100;2024-02-15T05:16:32;27.10;;;8.95;;
9799;SDS011;4939;52.00085300;4.17406100;2024-02-15T05:18:59;28.02;;;8.88;;
9799;SDS011;4939;52.00085300;4.17406100;2024-02-15T05:21:25;26.35;;;9.10;;
9799;SDS011;4939;52.00085300;4.17406100;2024-02-15T05:23:51;21.10;;;8.63;;
9799;SDS011;4939;52.00085300;4.17406100;2024-02-15T05:26:18;21.75;;;8.80;;
9799;SDS011;4939;52.00085300;4.17406100;2024-02-15T05:28:48;22.90;;;8.25;;
9799;SDS011;4939;52.00085300;4.17406100;2024-02-15T05:31:17;23.65;;;8.82;;
9799;SDS011;4939;52.00085300;4.17406100;2024-02-15T05:33:49;20.95;;;7.60;;
9799;SDS011;4939;52.00085300;4.17406100;2024-02-15T05:36:16;22.58;;;8.50;;
9799;SDS011;4939;52.00085300;4.17406100;2024-02-15T05:38:46;26.13;;;8.85;;
9799;SDS011;4939;52.00085300;4.17406100;2024-02-15T05:41:12;22.85;;;8.27;;
9799;SDS011;4939;52.00085300;4.17406100;2024-02-15T05:43:39;20.08;;;7.82;;
9799;SDS011;4939;52.00085300;4.17406100;2024-02-15T05:46:06;22.17;;;8.23;;
9799;SDS011;4939;52.00085300;4.17406100;2024-02-15T05:48:33;21.30;;;8.18;;
9799;SDS011;4939;52.00085300;4.17406100;2024-02-15T05:51:03;18.70;;;7.70;;
9799;SDS011;4939;52.00085300;4.17406100;2024-02-15T05:53:29;23.02;;;7.75;;
9799;SDS011;4939;52.00085300;4.17406100;2024-02-15T05:55:56;18.33;;;6.93;;
9799;SDS011;4939;52.00085300;4.17406100;2024-02-15T05:58:23;15.85;;;6.85;;
9799;SDS011;4939;52.00085300;4.17406100;2024-02-15T06:00:49;16.13;;;6.55;;
9799;SDS011;4939;52.00085300;4.17406100;2024-02-15T06:03:16;16.02;;;6.80;;
9799;SDS011;4939;52.00085300;4.17406100;2024-02-15T06:05:42;20.38;;;6.97;;
9799;SDS011;4939;52.00085300;4.17406100;2024-02-15T06:08:09;19.65;;;7.53;;
9799;SDS011;4939;52.00085300;4.17406100;2024-02-15T06:10:37;17.10;;;6.75;;
9799;SDS011;4939;52.00085300;4.17406100;2024-02-15T06:13:03;20.42;;;7.53;;
9799;SDS011;4939;52.00085300;4.17406100;2024-02-15T06:15:29;19.35;;;7.90;;
9799;SDS011;4939;52.00085300;4.17406100;2024-02-15T06:17:55;16.48;;;7.63;;
9799;SDS011;4939;52.00085300;4.17406100;2024-02-15T06:20:22;19.08;;;7.38;;
9799;SDS011;4939;52.00085300;4.17406100;2024-02-15T06:22:50;20.40;;;7.15;;
9799;SDS011;4939;52.00085300;4.17406100;2024-02-15T06:25:17;18.77;;;7.18;;
9799;SDS011;4939;52.00085300;4.17406100;2024-02-15T06:27:46;21.65;;;8.23;;
9799;SDS011;4939;52.00085300;4.17406100;2024-02-15T06:30:14;20.02;;;7.38;;
9799;SDS011;4939;52.00085300;4.17406100;2024-02-15T06:32:58;22.40;;;7.10;;
9799;SDS011;4939;52.00085300;4.17406100;2024-02-15T06:35:43;20.85;;;8.52;;
9799;SDS011;4939;52.00085300;4.17406100;2024-02-15T06:38:28;22.15;;;9.50;;
9799;SDS011;4939;52.00085300;4.17406100;2024-02-15T06:41:13;20.90;;;9.02;;
9799;SDS011;4939;52.00085300;4.17406100;2024-02-15T06:43:39;22.90;;;9.63;;
9799;SDS011;4939;52.00085300;4.17406100;2024-02-15T06:46:08;22.38;;;8.65;;
9799;SDS011;4939;52.00085300;4.17406100;2024-02-15T06:48:35;27.83;;;9.60;;
9799;SDS011;4939;52.00085300;4.17406100;2024-02-15T06:51:02;23.13;;;8.45;;
9799;SDS011;4939;52.00085300;4.17406100;2024-02-15T06:53:29;24.88;;;9.05;;
9799;SDS011;4939;52.00085300;4.17406100;2024-02-15T06:55:55;25.45;;;8.35;;
9799;SDS011;4939;52.00085300;4.17406100;2024-02-15T06:58:21;21.33;;;8.82;;
9799;SDS011;4939;52.00085300;4.17406100;2024-02-15T07:00:48;24.30;;;8.65;;
9799;SDS011;4939;52.00085300;4.17406100;2024-02-15T07:03:17;22.70;;;9.10;;
9799;SDS011;4939;52.00085300;4.17406100;2024-02-15T07:05:43;23.83;;;8.65;;
9799;SDS011;4939;52.00085300;4.17406100;2024-02-15T07:08:09;25.52;;;9.40;;
9799;SDS011;4939;52.00085300;4.17406100;2024-02-15T07:10:37;24.08;;;9.68;;
9799;SDS011;4939;52.00085300;4.17406100;2024-02-15T07:13:04;23.20;;;9.05;;
9799;SDS011;4939;52.00085300;4.17406100;2024-02-15T07:15:31;21.00;;;9.15;;
9799;SDS011;4939;52.00085300;4.17406100;2024-02-15T07:17:58;20.85;;;8.80;;
9799;SDS011;4939;52.00085300;4.17406100;2024-02-15T07:20:24;22.08;;;8.23;;
9799;SDS011;4939;52.00085300;4.17406100;2024-02-15T07:22:51;25.13;;;8.35;;
9799;SDS011;4939;52.00085300;4.17406100;2024-02-15T07:25:18;24.58;;;8.23;;
9799;SDS011;4939;52.00085300;4.17406100;2024-02-15T07:27:44;20.60;;;7.60;;
9799;SDS011;4939;52.00085300;4.17406100;2024-02-15T07:30:10;23.02;;;8.38;;
9799;SDS011;4939;52.00085300;4.17406100;2024-02-15T07:32:36;22.20;;;8.00;;
9799;SDS011;4939;52.00085300;4.17406100;2024-02-15T07:35:02;25.80;;;9.00;;
9799;SDS011;4939;52.00085300;4.17406100;2024-02-15T07:37:32;25.42;;;8.73;;
9799;SDS011;4939;52.00085300;4.17406100;2024-02-15T07:39:59;18.55;;;8.35;;
9799;SDS011;4939;52.00085300;4.17406100;2024-02-15T07:42:25;26.30;;;8.63;;
9799;SDS011;4939;52.00085300;4.17406100;2024-02-15T07:44:51;25.95;;;8.70;;
9799;SDS011;4939;52.00085300;4.17406100;2024-02-15T07:47:20;26.08;;;9.63;;
9799;SDS011;4939;52.00085300;4.17406100;2024-02-15T07:49:49;21.98;;;8.98;;
9799;SDS011;4939;52.00085300;4.17406100;2024-02-15T07:52:15;24.00;;;9.55;;
9799;SDS011;4939;52.00085300;4.17406100;2024-02-15T07:54:42;21.58;;;9.77;;
9799;SDS011;4939;52.00085300;4.17406100;2024-02-15T07:57:08;21.95;;;9.27;;
9799;SDS011;4939;52.00085300;4.17406100;2024-02-15T07:59:34;26.45;;;9.68;;
9799;SDS011;4939;52.00085300;4.17406100;2024-02-15T08:02:01;25.10;;;9.45;;
9799;SDS011;4939;52.00085300;4.17406100;2024-02-15T08:04:27;27.10;;;9.23;;
9799;SDS011;4939;52.00085300;4.17406100;2024-02-15T08:06:54;23.98;;;8.85;;
9799;SDS011;4939;52.00085300;4.17406100;2024-02-15T08:09:20;25.27;;;8.43;;
9799;SDS011;4939;52.00085300;4.17406100;2024-02-15T08:11:49;23.00;;;8.50;;
9799;SDS011;4939;52.00085300;4.17406100;2024-02-15T08:14:20;24.17;;;8.60;;
9799;SDS011;4939;52.00085300;4.17406100;2024-02-15T08:16:46;21.90;;;7.70;;
9799;SDS011;4939;52.00085300;4.17406100;2024-02-15T08:19:13;21.27;;;7.90;;
9799;SDS011;4939;52.00085300;4.17406100;2024-02-15T08:21:39;21.55;;;8.15;;
9799;SDS011;4939;52.00085300;4.17406100;2024-02-15T08:24:11;19.38;;;7.50;;
9799;SDS011;4939;52.00085300;4.17406100;2024-02-15T08:26:37;21.65;;;8.07;;
9799;SDS011;4939;52.00085300;4.17406100;2024-02-15T08:29:04;17.92;;;7.03;;
9799;SDS011;4939;52.00085300;4.17406100;2024-02-15T08:31:31;16.17;;;6.85;;
9799;SDS011;4939;52.00085300;4.17406100;2024-02-15T08:33:57;18.90;;;6.47;;
9799;SDS011;4939;52.00085300;4.17406100;2024-02-15T08:36:23;22.15;;;6.18;;
9799;SDS011;4939;52.00085300;4.17406100;2024-02-15T08:38:50;15.82;;;5.78;;
9799;SDS011;4939;52.00085300;4.17406100;2024-02-15T08:41:16;18.75;;;7.18;;
9799;SDS011;4939;52.00085300;4.17406100;2024-02-15T08:43:46;16.35;;;5.82;;
9799;SDS011;4939;52.00085300;4.17406100;2024-02-15T08:46:13;17.58;;;6.07;;
9799;SDS011;4939;52.00085300;4.17406100;2024-02-15T08:48:39;14.93;;;4.97;;
9799;SDS011;4939;52.00085300;4.17406100;2024-02-15T08:51:06;13.40;;;5.60;;
9799;SDS011;4939;52.00085300;4.17406100;2024-02-15T08:53:34;15.70;;;5.75;;
9799;SDS011;4939;52.00085300;4.17406100;2024-02-15T08:56:01;16.38;;;5.82;;
9799;SDS011;4939;52.00085300;4.17406100;2024-02-15T08:58:28;15.70;;;5.20;;
9799;SDS011;4939;52.00085300;4.17406100;2024-02-15T09:00:55;14.65;;;6.07;;
9799;SDS011;4939;52.00085300;4.17406100;2024-02-15T09:03:21;15.65;;;5.90;;
9799;SDS011;4939;52.00085300;4.17406100;2024-02-15T09:05:47;12.73;;;5.68;;
9799;SDS011;4939;52.00085300;4.17406100;2024-02-15T09:08:13;14.73;;;5.68;;
9799;SDS011;4939;52.00085300;4.17406100;2024-02-15T09:10:40;15.88;;;5.80;;
9799;SDS011;4939;52.00085300;4.17406100;2024-02-15T09:13:08;16.33;;;5.47;;
9799;SDS011;4939;52.00085300;4.17406100;2024-02-15T09:15:34;21.42;;;5.97;;
9799;SDS011;4939;52.00085300;4.17406100;2024-02-15T09:18:00;16.73;;;6.57;;
9799;SDS011;4939;52.00085300;4.17406100;2024-02-15T09:20:26;19.10;;;6.07;;
9799;SDS011;4939;52.00085300;4.17406100;2024-02-15T09:22:57;14.43;;;5.70;;
9799;SDS011;4939;52.00085300;4.17406100;2024-02-15T09:25:23;17.38;;;6.07;;
9799;SDS011;4939;52.00085300;4.17406100;2024-02-15T09:27:49;16.42;;;5.75;;
9799;SDS011;4939;52.00085300;4.17406100;2024-02-15T09:30:16;18.10;;;5.70;;
9799;SDS011;4939;52.00085300;4.17406100;2024-02-15T09:32:43;16.40;;;5.75;;
9799;SDS011;4939;52.00085300;4.17406100;2024-02-15T09:35:10;14.60;;;5.50;;
9799;SDS011;4939;52.00085300;4.17406100;2024-02-15T09:37:43;15.82;;;5.55;;
9799;SDS011;4939;52.00085300;4.17406100;2024-02-15T09:40:16;12.65;;;5.30;;
9799;SDS011;4939;52.00085300;4.17406100;2024-02-15T09:42:46;14.23;;;5.32;;
9799;SDS011;4939;52.00085300;4.17406100;2024-02-15T09:45:12;14.30;;;5.30;;
9799;SDS011;4939;52.00085300;4.17406100;2024-02-15T09:47:44;12.73;;;5.38;;
9799;SDS011;4939;52.00085300;4.17406100;2024-02-15T09:50:10;14.23;;;5.07;;
9799;SDS011;4939;52.00085300;4.17406100;2024-02-15T09:52:49;11.88;;;4.97;;
9799;SDS011;4939;52.00085300;4.17406100;2024-02-15T09:55:16;12.23;;;4.95;;
9799;SDS011;4939;52.00085300;4.17406100;2024-02-15T09:57:43;12.00;;;5.22;;
9799;SDS011;4939;52.00085300;4.17406100;2024-02-15T10:00:10;14.20;;;5.35;;
9799;SDS011;4939;52.00085300;4.17406100;2024-02-15T10:02:40;12.45;;;5.55;;
9799;SDS011;4939;52.00085300;4.17406100;2024-02-15T10:05:07;12.27;;;5.30;;
9799;SDS011;4939;52.00085300;4.17406100;2024-02-15T10:07:45;10.88;;;5.35;;
9799;SDS011;4939;52.00085300;4.17406100;2024-02-15T10:10:15;16.65;;;5.53;;
9799;SDS011;4939;52.00085300;4.17406100;2024-02-15T10:12:42;12.73;;;5.40;;
9799;SDS011;4939;52.00085300;4.17406100;2024-02-15T10:15:08;13.02;;;5.65;;
9799;SDS011;4939;52.00085300;4.17406100;2024-02-15T10:17:35;10.02;;;4.85;;
9799;SDS011;4939;52.00085300;4.17406100;2024-02-15T10:20:05;12.70;;;5.07;;
9799;SDS011;4939;52.00085300;4.17406100;2024-02-15T10:22:31;10.88;;;4.43;;
9799;SDS011;4939;52.00085300;4.17406100;2024-02-15T10:25:13;9.93;;;4.18;;
9799;SDS011;4939;52.00085300;4.17406100;2024-02-15T10:27:42;13.18;;;4.85;;
9799;SDS011;4939;52.00085300;4.17406100;2024-02-15T10:30:15;9.45;;;4.25;;
9799;SDS011;4939;52.00085300;4.17406100;2024-02-15T10:32:44;11.10;;;4.32;;
9799;SDS011;4939;52.00085300;4.17406100;2024-02-15T10:35:18;9.85;;;4.35;;
9799;SDS011;4939;52.00085300;4.17406100;2024-02-15T10:37:44;8.70;;;4.07;;
9799;SDS011;4939;52.00085300;4.17406100;2024-02-15T10:40:11;8.80;;;4.20;;
9799;SDS011;4939;52.00085300;4.17406100;2024-02-15T10:42:39;9.38;;;4.00;;
9799;SDS011;4939;52.00085300;4.17406100;2024-02-15T10:45:07;7.90;;;3.90;;
9799;SDS011;4939;52.00085300;4.17406100;2024-02-15T10:47:37;9.05;;;4.03;;
9799;SDS011;4939;52.00085300;4.17406100;2024-02-15T10:50:04;8.85;;;3.60;;
9799;SDS011;4939;52.00085300;4.17406100;2024-02-15T10:52:31;10.75;;;4.22;;
9799;SDS011;4939;52.00085300;4.17406100;2024-02-15T10:55:03;8.70;;;3.63;;
9799;SDS011;4939;52.00085300;4.17406100;2024-02-15T10:57:34;7.28;;;3.42;;
9799;SDS011;4939;52.00085300;4.17406100;2024-02-15T11:00:04;6.72;;;3.10;;
9799;SDS011;4939;52.00085300;4.17406100;2024-02-15T11:02:42;9.35;;;3.67;;
9799;SDS011;4939;52.00085300;4.17406100;2024-02-15T11:05:22;7.45;;;3.33;;
9799;SDS011;4939;52.00085300;4.17406100;2024-02-15T11:07:49;8.25;;;3.40;;
9799;SDS011;4939;52.00085300;4.17406100;2024-02-15T11:10:16;6.72;;;3.38;;
9799;SDS011;4939;52.00085300;4.17406100;2024-02-15T11:12:42;10.43;;;3.75;;
9799;SDS011;4939;52.00085300;4.17406100;2024-02-15T11:15:09;10.63;;;4.50;;
9799;SDS011;4939;52.00085300;4.17406100;2024-02-15T11:20:06;10.88;;;4.22;;
9799;SDS011;4939;52.00085300;4.17406100;2024-02-15T11:22:34;8.40;;;4.10;;
9799;SDS011;4939;52.00085300;4.17406100;2024-02-15T11:25:04;11.50;;;4.38;;
9799;SDS011;4939;52.00085300;4.17406100;2024-02-15T11:27:37;7.25;;;3.33;;
9799;SDS011;4939;52.00085300;4.17406100;2024-02-15T11:30:04;8.25;;;3.55;;
9799;SDS011;4939;52.00085300;4.17406100;2024-02-15T11:32:47;8.18;;;3.63;;
9799;SDS011;4939;52.00085300;4.17406100;2024-02-15T11:43:10;9.23;;;3.63;;
9799;SDS011;4939;52.00085300;4.17406100;2024-02-15T11:46:17;9.40;;;3.88;;
9799;SDS011;4939;52.00085300;4.17406100;2024-02-15T11:48:47;9.05;;;3.88;;
9799;SDS011;4939;52.00085300;4.17406100;2024-02-15T11:54:03;9.57;;;3.95;;
9799;SDS011;4939;52.00085300;4.17406100;2024-02-15T11:59:12;8.85;;;4.15;;
9799;SDS011;4939;52.00085300;4.17406100;2024-02-15T12:01:55;9.35;;;4.13;;
9799;SDS011;4939;52.00085300;4.17406100;2024-02-15T12:04:40;9.95;;;4.30;;
9799;SDS011;4939;52.00085300;4.17406100;2024-02-15T12:07:25;7.55;;;3.83;;
9799;SDS011;4939;52.00085300;4.17406100;2024-02-15T12:10:16;8.18;;;3.78;;
9799;SDS011;4939;52.00085300;4.17406100;2024-02-15T12:13:01;8.27;;;3.78;;
9799;SDS011;4939;52.00085300;4.17406100;2024-02-15T12:16:01;6.93;;;3.47;;
9799;SDS011;4939;52.00085300;4.17406100;2024-02-15T12:18:45;7.35;;;3.33;;
9799;SDS011;4939;52.00085300;4.17406100;2024-02-15T12:21:17;6.93;;;3.60;;
9799;SDS011;4939;52.00085300;4.17406100;2024-02-15T12:23:48;6.75;;;2.80;;
9799;SDS011;4939;52.00085300;4.17406100;2024-02-15T12:26:18;8.65;;;3.55;;
9799;SDS011;4939;52.00085300;4.17406100;2024-02-15T12:28:55;6.13;;;3.20;;
9799;SDS011;4939;52.00085300;4.17406100;2024-02-15T12:33:58;9.38;;;3.03;;
9799;SDS011;4939;52.00085300;4.17406100;2024-02-15T12:36:34;6.00;;;2.90;;
9799;SDS011;4939;52.00085300;4.17406100;2024-02-15T12:39:04;6.03;;;3.10;;
9799;SDS011;4939;52.00085300;4.17406100;2024-02-15T12:41:47;6.00;;;2.78;;
9799;SDS011;4939;52.00085300;4.17406100;2024-02-15T12:44:17;6.68;;;2.80;;
9799;SDS011;4939;52.00085300;4.17406100;2024-02-15T12:46:45;5.97;;;2.80;;
9799;SDS011;4939;52.00085300;4.17406100;2024-02-15T12:51:51;5.50;;;2.90;;
9799;SDS011;4939;52.00085300;4.17406100;2024-02-15T12:54:20;5.78;;;2.55;;
9799;SDS011;4939;52.00085300;4.17406100;2024-02-15T12:56:47;4.57;;;2.55;;
9799;SDS011;4939;52.00085300;4.17406100;2024-02-15T13:01:45;6.68;;;2.40;;
9799;SDS011;4939;52.00085300;4.17406100;2024-02-15T13:04:24;6.18;;;2.40;;
9799;SDS011;4939;52.00085300;4.17406100;2024-02-15T13:06:50;7.25;;;2.50;;
9799;SDS011;4939;52.00085300;4.17406100;2024-02-15T13:09:16;7.63;;;2.50;;
9799;SDS011;4939;52.00085300;4.17406100;2024-02-15T13:11:43;8.27;;;2.40;;
9799;SDS011;4939;52.00085300;4.17406100;2024-02-15T13:14:12;6.30;;;2.50;;
9799;SDS011;4939;52.00085300;4.17406100;2024-02-15T13:16:38;10.23;;;2.60;;
9799;SDS011;4939;52.00085300;4.17406100;2024-02-15T13:19:04;8.50;;;2.75;;
9799;SDS011;4939;52.00085300;4.17406100;2024-02-15T13:21:32;4.95;;;2.80;;
9799;SDS011;4939;52.00085300;4.17406100;2024-02-15T13:23:59;5.10;;;2.50;;
9799;SDS011;4939;52.00085300;4.17406100;2024-02-15T13:26:29;5.32;;;2.50;;
9799;SDS011;4939;52.00085300;4.17406100;2024-02-15T13:28:56;5.28;;;2.17;;
9799;SDS011;4939;52.00085300;4.17406100;2024-02-15T13:31:22;5.90;;;3.00;;
9799;SDS011;4939;52.00085300;4.17406100;2024-02-15T13:33:48;5.20;;;2.15;;